sensor_id;sensor_type;location;lat;lon;timestamp;P1;durP1;ratioP1;P2;durP2;ratioP2
63320;SDS011;49449;48.800;9.534;2024-03-02T00:00:59;11.05;;;9.10;;
63320;SDS011;49449;48.800;9.534;2024-03-02T00:03:26;13.38;;;9.65;;
63320;SDS011;49449;48.800;9.534;2024-03-02T00:05:54;11.63;;;9.10;;
63320;SDS011;49449;48.800;9.534;2024-03-02T00:08:23;12.23;;;9.57;;
63320;SDS011;49449;48.800;9.534;2024-03-02T00:10:55;13.90;;;10.15;;
63320;SDS011;49449;48.800;9.534;2024-03-02T00:13:25;13.55;;;10.90;;
63320;SDS011;49449;48.800;9.534;2024-03-02T00:15:55;16.90;;;12.23;;
63320;SDS011;49449;48.800;9.534;2024-03-02T00:18:25;15.15;;;11.35;;
63320;SDS011;49449;48.800;9.534;2024-03-02T00:20:54;13.57;;;9.18;;
63320;SDS011;49449;48.800;9.534;2024-03-02T00:23:23;14.50;;;9.80;;
63320;SDS011;49449;48.800;9.534;2024-03-02T00:25:54;12.30;;;10.00;;
63320;SDS011;49449;48.800;9.534;2024-03-02T00:28:23;11.75;;;10.07;;
63320;SDS011;49449;48.800;9.534;2024-03-02T00:30:57;11.93;;;8.68;;
63320;SDS011;49449;48.800;9.534;2024-03-02T00:33:26;13.07;;;10.65;;
63320;SDS011;49449;48.800;9.534;2024-03-02T00:35:57;12.32;;;9.07;;
63320;SDS011;49449;48.800;9.534;2024-03-02T00:38:26;12.07;;;9.63;;
63320;SDS011;49449;48.800;9.534;2024-03-02T00:40:54;11.32;;;9.45;;
63320;SDS011;49449;48.800;9.534;2024-03-02T00:43:41;13.18;;;10.05;;
63320;SDS011;49449;48.800;9.534;2024-03-02T00:46:15;12.40;;;9.68;;
63320;SDS011;49449;48.800;9.534;2024-03-02T00:48:48;12.75;;;10.13;;
63320;SDS011;49449;48.800;9.534;2024-03-02T00:51:21;10.85;;;8.88;;
63320;SDS011;49449;48.800;9.534;2024-03-02T00:53:49;10.25;;;8.77;;
63320;SDS011;49449;48.800;9.534;2024-03-02T00:56:18;10.48;;;7.93;;
63320;SDS011;49449;48.800;9.534;2024-03-02T00:58:46;12.95;;;9.30;;
63320;SDS011;49449;48.800;9.534;2024-03-02T01:01:16;11.35;;;8.88;;
63320;SDS011;49449;48.800;9.534;2024-03-02T01:03:43;11.32;;;8.82;;
63320;SDS011;49449;48.800;9.534;2024-03-02T01:06:11;11.98;;;8.77;;
63320;SDS011;49449;48.800;9.534;2024-03-02T01:08:39;12.13;;;8.98;;
63320;SDS011;49449;48.800;9.534;2024-03-02T01:11:07;10.45;;;8.90;;
63320;SDS011;49449;48.800;9.534;2024-03-02T01:13:35;11.38;;;9.65;;
63320;SDS011;49449;48.800;9.534;2024-03-02T01:16:03;11.40;;;9.45;;
63320;SDS011;49449;48.800;9.534;2024-03-02T01:18:32;9.25;;;8.07;;
63320;SDS011;49449;48.800;9.534;2024-03-02T01:21:00;9.25;;;7.55;;
63320;SDS011;49449;48.800;9.534;2024-03-02T01:23:28;11.57;;;9.18;;
63320;SDS011;49449;48.800;9.534;2024-03-02T01:25:56;10.65;;;8.52;;
63320;SDS011;49449;48.800;9.534;2024-03-02T01:28:24;11.35;;;8.93;;
63320;SDS011;49449;48.800;9.534;2024-03-02T01:30:51;10.00;;;7.97;;
63320;SDS011;49449;48.800;9.534;2024-03-02T01:33:19;10.75;;;8.73;;
63320;SDS011;49449;48.800;9.534;2024-03-02T01:35:49;10.38;;;8.30;;
63320;SDS011;49449;48.800;9.534;2024-03-02T01:38:17;9.63;;;8.13;;
63320;SDS011;49449;48.800;9.534;2024-03-02T01:40:44;11.93;;;8.93;;
63320;SDS011;49449;48.800;9.534;2024-03-02T01:43:12;11.27;;;9.50;;
63320;SDS011;49449;48.800;9.534;2024-03-02T01:45:40;11.23;;;9.95;;
63320;SDS011;49449;48.800;9.534;2024-03-02T01:48:08;10.82;;;8.63;;
63320;SDS011;49449;48.800;9.534;2024-03-02T01:50:36;9.88;;;8.75;;
63320;SDS011;49449;48.800;9.534;2024-03-02T01:53:05;10.50;;;9.05;;
63320;SDS011;49449;48.800;9.534;2024-03-02T01:55:36;11.82;;;8.52;;
63320;SDS011;49449;48.800;9.534;2024-03-02T01:58:03;11.05;;;8.68;;
63320;SDS011;49449;48.800;9.534;2024-03-02T02:00:33;11.35;;;9.23;;
63320;SDS011;49449;48.800;9.534;2024-03-02T02:03:00;10.50;;;8.35;;
63320;SDS011;49449;48.800;9.534;2024-03-02T02:05:28;9.73;;;8.73;;
63320;SDS011;49449;48.800;9.534;2024-03-02T02:07:57;9.48;;;7.30;;
63320;SDS011;49449;48.800;9.534;2024-03-02T02:10:27;9.63;;;8.43;;
63320;SDS011;49449;48.800;9.534;2024-03-02T02:12:55;11.35;;;8.85;;
63320;SDS011;49449;48.800;9.534;2024-03-02T02:15:23;10.35;;;7.95;;
63320;SDS011;49449;48.800;9.534;2024-03-02T02:17:53;10.73;;;8.15;;
63320;SDS011;49449;48.800;9.534;2024-03-02T02:20:21;10.32;;;8.10;;
63320;SDS011;49449;48.800;9.534;2024-03-02T02:22:57;8.48;;;6.57;;
63320;SDS011;49449;48.800;9.534;2024-03-02T02:25:25;11.77;;;8.60;;
63320;SDS011;49449;48.800;9.534;2024-03-02T02:27:53;9.10;;;7.65;;
63320;SDS011;49449;48.800;9.534;2024-03-02T02:30:23;10.40;;;7.95;;
63320;SDS011;49449;48.800;9.534;2024-03-02T02:32:51;10.10;;;7.57;;
63320;SDS011;49449;48.800;9.534;2024-03-02T02:35:19;9.10;;;7.80;;
63320;SDS011;49449;48.800;9.534;2024-03-02T02:37:47;11.43;;;9.57;;
63320;SDS011;49449;48.800;9.534;2024-03-02T02:40:18;10.43;;;8.23;;
63320;SDS011;49449;48.800;9.534;2024-03-02T02:42:46;9.05;;;7.45;;
63320;SDS011;49449;48.800;9.534;2024-03-02T02:45:14;10.98;;;8.73;;
63320;SDS011;49449;48.800;9.534;2024-03-02T02:47:42;12.05;;;10.02;;
63320;SDS011;49449;48.800;9.534;2024-03-02T02:50:11;10.38;;;8.35;;
63320;SDS011;49449;48.800;9.534;2024-03-02T02:52:40;11.27;;;9.15;;
63320;SDS011;49449;48.800;9.534;2024-03-02T02:55:09;9.57;;;7.10;;
63320;SDS011;49449;48.800;9.534;2024-03-02T02:57:40;10.05;;;8.38;;
63320;SDS011;49449;48.800;9.534;2024-03-02T03:00:10;10.55;;;7.97;;
63320;SDS011;49449;48.800;9.534;2024-03-02T03:02:41;10.10;;;8.32;;
63320;SDS011;49449;48.800;9.534;2024-03-02T03:05:10;9.57;;;8.43;;
63320;SDS011;49449;48.800;9.534;2024-03-02T03:07:40;10.43;;;7.50;;
63320;SDS011;49449;48.800;9.534;2024-03-02T03:10:10;11.95;;;8.98;;
63320;SDS011;49449;48.800;9.534;2024-03-02T03:12:39;11.55;;;8.57;;
63320;SDS011;49449;48.800;9.534;2024-03-02T03:15:09;9.27;;;7.05;;
63320;SDS011;49449;48.800;9.534;2024-03-02T03:17:37;9.15;;;7.13;;
63320;SDS011;49449;48.800;9.534;2024-03-02T03:20:07;9.70;;;8.23;;
63320;SDS011;49449;48.800;9.534;2024-03-02T03:22:37;9.77;;;8.05;;
63320;SDS011;49449;48.800;9.534;2024-03-02T03:25:05;11.20;;;7.75;;
63320;SDS011;49449;48.800;9.534;2024-03-02T03:27:34;8.70;;;7.30;;
63320;SDS011;49449;48.800;9.534;2024-03-02T03:30:04;8.85;;;7.13;;
63320;SDS011;49449;48.800;9.534;2024-03-02T03:32:33;9.43;;;7.57;;
63320;SDS011;49449;48.800;9.534;2024-03-02T03:35:01;8.65;;;7.10;;
63320;SDS011;49449;48.800;9.534;2024-03-02T03:37:29;9.15;;;7.35;;
63320;SDS011;49449;48.800;9.534;2024-03-02T03:39:59;8.93;;;7.85;;
63320;SDS011;49449;48.800;9.534;2024-03-02T03:42:27;11.90;;;9.05;;
63320;SDS011;49449;48.800;9.534;2024-03-02T03:44:55;10.50;;;8.70;;
63320;SDS011;49449;48.800;9.534;2024-03-02T03:47:24;9.93;;;8.00;;
63320;SDS011;49449;48.800;9.534;2024-03-02T03:49:52;8.93;;;7.95;;
63320;SDS011;49449;48.800;9.534;2024-03-02T03:52:19;8.63;;;6.75;;
63320;SDS011;49449;48.800;9.534;2024-03-02T03:54:48;7.95;;;7.05;;
63320;SDS011;49449;48.800;9.534;2024-03-02T03:57:16;9.10;;;6.57;;
63320;SDS011;49449;48.800;9.534;2024-03-02T03:59:44;9.05;;;7.10;;
63320;SDS011;49449;48.800;9.534;2024-03-02T04:02:12;9.10;;;7.53;;
63320;SDS011;49449;48.800;9.534;2024-03-02T04:04:41;9.95;;;8.50;;
63320;SDS011;49449;48.800;9.534;2024-03-02T04:07:10;9.57;;;7.88;;
63320;SDS011;49449;48.800;9.534;2024-03-02T04:09:37;9.48;;;8.30;;
63320;SDS011;49449;48.800;9.534;2024-03-02T04:12:05;10.85;;;8.27;;
63320;SDS011;49449;48.800;9.534;2024-03-02T04:14:33;12.68;;;7.13;;
63320;SDS011;49449;48.800;9.534;2024-03-02T04:17:01;9.70;;;8.07;;
63320;SDS011;49449;48.800;9.534;2024-03-02T04:19:29;12.45;;;8.75;;
63320;SDS011;49449;48.800;9.534;2024-03-02T04:21:58;13.00;;;8.00;;
63320;SDS011;49449;48.800;9.534;2024-03-02T04:24:26;12.95;;;9.23;;
63320;SDS011;49449;48.800;9.534;2024-03-02T04:26:54;13.65;;;9.90;;
63320;SDS011;49449;48.800;9.534;2024-03-02T04:29:22;12.75;;;9.35;;
63320;SDS011;49449;48.800;9.534;2024-03-02T04:31:49;13.27;;;8.65;;
63320;SDS011;49449;48.800;9.534;2024-03-02T04:34:17;11.60;;;7.53;;
63320;SDS011;49449;48.800;9.534;2024-03-02T04:36:45;11.27;;;8.00;;
63320;SDS011;49449;48.800;9.534;2024-03-02T04:39:14;12.40;;;9.40;;
63320;SDS011;49449;48.800;9.534;2024-03-02T04:41:42;11.43;;;8.50;;
63320;SDS011;49449;48.800;9.534;2024-03-02T04:44:10;12.18;;;9.05;;
63320;SDS011;49449;48.800;9.534;2024-03-02T04:46:37;9.73;;;7.18;;
63320;SDS011;49449;48.800;9.534;2024-03-02T04:49:05;10.95;;;8.25;;
63320;SDS011;49449;48.800;9.534;2024-03-02T04:51:33;11.82;;;8.07;;
63320;SDS011;49449;48.800;9.534;2024-03-02T04:54:01;10.73;;;7.53;;
63320;SDS011;49449;48.800;9.534;2024-03-02T04:56:30;10.70;;;7.55;;
63320;SDS011;49449;48.800;9.534;2024-03-02T04:59:10;11.50;;;7.90;;
63320;SDS011;49449;48.800;9.534;2024-03-02T05:01:38;13.13;;;8.63;;
63320;SDS011;49449;48.800;9.534;2024-03-02T05:04:06;12.27;;;9.32;;
63320;SDS011;49449;48.800;9.534;2024-03-02T05:06:34;13.52;;;9.05;;
63320;SDS011;49449;48.800;9.534;2024-03-02T05:09:02;13.88;;;8.43;;
63320;SDS011;49449;48.800;9.534;2024-03-02T05:11:31;14.00;;;9.88;;
63320;SDS011;49449;48.800;9.534;2024-03-02T05:14:16;13.38;;;8.85;;
63320;SDS011;49449;48.800;9.534;2024-03-02T05:16:44;14.55;;;8.15;;
63320;SDS011;49449;48.800;9.534;2024-03-02T05:19:12;14.85;;;9.98;;
63320;SDS011;49449;48.800;9.534;2024-03-02T05:21:40;12.65;;;8.85;;
63320;SDS011;49449;48.800;9.534;2024-03-02T05:24:07;12.57;;;8.15;;
63320;SDS011;49449;48.800;9.534;2024-03-02T05:26:36;13.25;;;8.35;;
63320;SDS011;49449;48.800;9.534;2024-03-02T05:29:04;14.55;;;9.38;;
63320;SDS011;49449;48.800;9.534;2024-03-02T05:31:32;13.25;;;9.10;;
63320;SDS011;49449;48.800;9.534;2024-03-02T05:34:00;14.63;;;9.90;;
63320;SDS011;49449;48.800;9.534;2024-03-02T05:36:29;21.77;;;10.40;;
63320;SDS011;49449;48.800;9.534;2024-03-02T05:38:56;13.70;;;9.88;;
63320;SDS011;49449;48.800;9.534;2024-03-02T05:41:24;13.80;;;9.55;;
63320;SDS011;49449;48.800;9.534;2024-03-02T05:43:53;10.88;;;7.15;;
63320;SDS011;49449;48.800;9.534;2024-03-02T05:46:21;8.90;;;7.32;;
63320;SDS011;49449;48.800;9.534;2024-03-02T05:48:49;13.18;;;8.80;;
63320;SDS011;49449;48.800;9.534;2024-03-02T05:51:17;10.18;;;8.02;;
63320;SDS011;49449;48.800;9.534;2024-03-02T05:53:45;12.38;;;8.48;;
63320;SDS011;49449;48.800;9.534;2024-03-02T05:56:12;11.23;;;8.15;;
63320;SDS011;49449;48.800;9.534;2024-03-02T05:58:40;11.02;;;8.38;;
63320;SDS011;49449;48.800;9.534;2024-03-02T06:01:25;13.30;;;9.38;;
63320;SDS011;49449;48.800;9.534;2024-03-02T06:03:55;13.02;;;8.90;;
63320;SDS011;49449;48.800;9.534;2024-03-02T06:06:23;10.32;;;7.35;;
63320;SDS011;49449;48.800;9.534;2024-03-02T06:08:50;12.20;;;8.32;;
63320;SDS011;49449;48.800;9.534;2024-03-02T06:11:18;13.57;;;9.02;;
63320;SDS011;49449;48.800;9.534;2024-03-02T06:13:47;14.38;;;9.45;;
63320;SDS011;49449;48.800;9.534;2024-03-02T06:16:15;12.60;;;8.27;;
63320;SDS011;49449;48.800;9.534;2024-03-02T06:18:44;13.57;;;9.52;;
63320;SDS011;49449;48.800;9.534;2024-03-02T06:21:11;18.63;;;9.73;;
63320;SDS011;49449;48.800;9.534;2024-03-02T06:23:39;52.90;;;11.35;;
63320;SDS011;49449;48.800;9.534;2024-03-02T06:26:07;15.43;;;8.88;;
63320;SDS011;49449;48.800;9.534;2024-03-02T06:28:35;17.73;;;9.57;;
63320;SDS011;49449;48.800;9.534;2024-03-02T06:31:03;15.68;;;8.88;;
63320;SDS011;49449;48.800;9.534;2024-03-02T06:33:31;13.73;;;9.13;;
63320;SDS011;49449;48.800;9.534;2024-03-02T06:36:00;19.02;;;13.23;;
63320;SDS011;49449;48.800;9.534;2024-03-02T06:38:28;18.45;;;12.75;;
63320;SDS011;49449;48.800;9.534;2024-03-02T06:40:58;18.95;;;13.20;;
63320;SDS011;49449;48.800;9.534;2024-03-02T06:43:26;18.17;;;13.38;;
63320;SDS011;49449;48.800;9.534;2024-03-02T06:45:53;16.90;;;11.93;;
63320;SDS011;49449;48.800;9.534;2024-03-02T06:48:22;13.32;;;9.98;;
63320;SDS011;49449;48.800;9.534;2024-03-02T06:50:50;14.35;;;9.65;;
63320;SDS011;49449;48.800;9.534;2024-03-02T06:53:20;15.27;;;9.77;;
63320;SDS011;49449;48.800;9.534;2024-03-02T06:55:48;11.60;;;9.00;;
63320;SDS011;49449;48.800;9.534;2024-03-02T06:58:16;14.20;;;10.00;;
63320;SDS011;49449;48.800;9.534;2024-03-02T07:00:44;13.05;;;9.18;;
63320;SDS011;49449;48.800;9.534;2024-03-02T07:03:12;16.33;;;11.13;;
63320;SDS011;49449;48.800;9.534;2024-03-02T07:05:40;16.75;;;11.00;;
63320;SDS011;49449;48.800;9.534;2024-03-02T07:08:08;13.93;;;10.68;;
63320;SDS011;49449;48.800;9.534;2024-03-02T07:10:37;14.30;;;10.80;;
63320;SDS011;49449;48.800;9.534;2024-03-02T07:13:04;13.82;;;10.20;;
63320;SDS011;49449;48.800;9.534;2024-03-02T07:15:32;12.52;;;8.63;;
63320;SDS011;49449;48.800;9.534;2024-03-02T07:18:20;12.60;;;9.85;;
63320;SDS011;49449;48.800;9.534;2024-03-02T07:20:48;12.85;;;8.70;;
63320;SDS011;49449;48.800;9.534;2024-03-02T07:23:15;14.88;;;9.48;;
63320;SDS011;49449;48.800;9.534;2024-03-02T07:25:45;14.20;;;9.65;;
63320;SDS011;49449;48.800;9.534;2024-03-02T07:28:15;12.20;;;9.13;;
63320;SDS011;49449;48.800;9.534;2024-03-02T07:30:43;13.38;;;10.23;;
63320;SDS011;49449;48.800;9.534;2024-03-02T07:33:11;14.82;;;11.27;;
63320;SDS011;49449;48.800;9.534;2024-03-02T07:35:39;14.55;;;11.27;;
63320;SDS011;49449;48.800;9.534;2024-03-02T07:38:07;15.30;;;11.30;;
63320;SDS011;49449;48.800;9.534;2024-03-02T07:40:35;15.57;;;11.52;;
63320;SDS011;49449;48.800;9.534;2024-03-02T07:43:04;12.52;;;8.93;;
63320;SDS011;49449;48.800;9.534;2024-03-02T07:45:32;14.50;;;10.18;;
63320;SDS011;49449;48.800;9.534;2024-03-02T07:48:00;13.38;;;10.00;;
63320;SDS011;49449;48.800;9.534;2024-03-02T07:50:29;15.15;;;10.35;;
63320;SDS011;49449;48.800;9.534;2024-03-02T07:52:57;13.25;;;9.80;;
63320;SDS011;49449;48.800;9.534;2024-03-02T07:55:25;14.05;;;10.80;;
63320;SDS011;49449;48.800;9.534;2024-03-02T07:57:53;12.63;;;9.27;;
63320;SDS011;49449;48.800;9.534;2024-03-02T08:00:22;15.02;;;11.73;;
63320;SDS011;49449;48.800;9.534;2024-03-02T08:02:52;18.83;;;12.13;;
63320;SDS011;49449;48.800;9.534;2024-03-02T08:05:19;13.45;;;11.70;;
63320;SDS011;49449;48.800;9.534;2024-03-02T08:07:48;13.73;;;9.10;;
63320;SDS011;49449;48.800;9.534;2024-03-02T08:10:18;13.02;;;10.13;;
63320;SDS011;49449;48.800;9.534;2024-03-02T08:12:46;13.73;;;10.10;;
63320;SDS011;49449;48.800;9.534;2024-03-02T08:15:14;12.48;;;9.88;;
63320;SDS011;49449;48.800;9.534;2024-03-02T08:17:43;13.25;;;10.68;;
63320;SDS011;49449;48.800;9.534;2024-03-02T08:20:14;13.38;;;10.10;;
63320;SDS011;49449;48.800;9.534;2024-03-02T08:22:42;13.40;;;9.95;;
63320;SDS011;49449;48.800;9.534;2024-03-02T08:25:11;12.68;;;9.27;;
63320;SDS011;49449;48.800;9.534;2024-03-02T08:27:39;12.05;;;9.52;;
63320;SDS011;49449;48.800;9.534;2024-03-02T08:30:07;11.65;;;9.45;;
63320;SDS011;49449;48.800;9.534;2024-03-02T08:32:37;13.70;;;10.60;;
63320;SDS011;49449;48.800;9.534;2024-03-02T08:35:06;11.48;;;8.93;;
63320;SDS011;49449;48.800;9.534;2024-03-02T08:37:34;14.55;;;10.10;;
63320;SDS011;49449;48.800;9.534;2024-03-02T08:40:05;14.10;;;8.93;;
63320;SDS011;49449;48.800;9.534;2024-03-02T08:42:34;13.00;;;8.85;;
63320;SDS011;49449;48.800;9.534;2024-03-02T08:45:02;12.32;;;9.52;;
63320;SDS011;49449;48.800;9.534;2024-03-02T08:47:30;11.23;;;8.40;;
63320;SDS011;49449;48.800;9.534;2024-03-02T08:49:58;14.20;;;9.85;;
63320;SDS011;49449;48.800;9.534;2024-03-02T08:52:28;14.38;;;11.05;;
63320;SDS011;49449;48.800;9.534;2024-03-02T08:54:56;13.95;;;10.18;;
63320;SDS011;49449;48.800;9.534;2024-03-02T08:57:24;13.07;;;9.98;;
63320;SDS011;49449;48.800;9.534;2024-03-02T08:59:51;12.35;;;9.98;;
63320;SDS011;49449;48.800;9.534;2024-03-02T09:02:19;10.60;;;8.68;;
63320;SDS011;49449;48.800;9.534;2024-03-02T09:04:47;11.10;;;8.55;;
63320;SDS011;49449;48.800;9.534;2024-03-02T09:07:16;10.55;;;7.68;;
63320;SDS011;49449;48.800;9.534;2024-03-02T09:09:45;11.48;;;9.40;;
63320;SDS011;49449;48.800;9.534;2024-03-02T09:12:13;12.38;;;9.82;;
63320;SDS011;49449;48.800;9.534;2024-03-02T09:14:41;11.73;;;9.43;;
63320;SDS011;49449;48.800;9.534;2024-03-02T09:17:09;11.75;;;10.30;;
63320;SDS011;49449;48.800;9.534;2024-03-02T09:19:38;11.85;;;8.35;;
63320;SDS011;49449;48.800;9.534;2024-03-02T09:22:08;11.77;;;9.38;;
63320;SDS011;49449;48.800;9.534;2024-03-02T09:24:36;10.63;;;9.27;;
63320;SDS011;49449;48.800;9.534;2024-03-02T09:27:05;11.55;;;9.70;;
63320;SDS011;49449;48.800;9.534;2024-03-02T09:29:33;11.25;;;8.85;;
63320;SDS011;49449;48.800;9.534;2024-03-02T09:32:01;12.32;;;10.50;;
63320;SDS011;49449;48.800;9.534;2024-03-02T09:34:29;13.75;;;10.13;;
63320;SDS011;49449;48.800;9.534;2024-03-02T09:36:57;12.88;;;9.88;;
63320;SDS011;49449;48.800;9.534;2024-03-02T09:39:25;10.98;;;8.52;;
63320;SDS011;49449;48.800;9.534;2024-03-02T09:41:52;11.02;;;9.43;;
63320;SDS011;49449;48.800;9.534;2024-03-02T09:44:22;10.70;;;8.57;;
63320;SDS011;49449;48.800;9.534;2024-03-02T09:46:51;10.68;;;8.18;;
63320;SDS011;49449;48.800;9.534;2024-03-02T09:49:19;9.60;;;7.18;;
63320;SDS011;49449;48.800;9.534;2024-03-02T09:51:47;9.07;;;7.03;;
63320;SDS011;49449;48.800;9.534;2024-03-02T09:54:16;7.78;;;6.72;;
63320;SDS011;49449;48.800;9.534;2024-03-02T09:56:46;8.20;;;6.10;;
63320;SDS011;49449;48.800;9.534;2024-03-02T09:59:18;6.32;;;5.10;;
63320;SDS011;49449;48.800;9.534;2024-03-02T10:01:57;5.70;;;4.57;;
63320;SDS011;49449;48.800;9.534;2024-03-02T10:04:26;4.53;;;3.97;;
63320;SDS011;49449;48.800;9.534;2024-03-02T10:07:11;3.30;;;2.85;;
63320;SDS011;49449;48.800;9.534;2024-03-02T10:09:39;6.38;;;4.32;;
63320;SDS011;49449;48.800;9.534;2024-03-02T10:12:08;4.32;;;3.95;;
63320;SDS011;49449;48.800;9.534;2024-03-02T10:14:37;3.78;;;3.40;;
63320;SDS011;49449;48.800;9.534;2024-03-02T10:17:07;4.60;;;3.60;;
63320;SDS011;49449;48.800;9.534;2024-03-02T10:19:36;2.53;;;2.22;;
63320;SDS011;49449;48.800;9.534;2024-03-02T10:22:05;2.40;;;2.20;;
63320;SDS011;49449;48.800;9.534;2024-03-02T10:24:37;3.13;;;2.90;;
63320;SDS011;49449;48.800;9.534;2024-03-02T10:27:07;3.13;;;2.55;;
63320;SDS011;49449;48.800;9.534;2024-03-02T10:29:38;2.35;;;2.15;;
63320;SDS011;49449;48.800;9.534;2024-03-02T10:32:11;3.25;;;2.95;;
63320;SDS011;49449;48.800;9.534;2024-03-02T10:34:40;2.83;;;2.63;;
63320;SDS011;49449;48.800;9.534;2024-03-02T10:37:08;3.53;;;2.90;;
63320;SDS011;49449;48.800;9.534;2024-03-02T10:39:38;2.58;;;2.38;;
63320;SDS011;49449;48.800;9.534;2024-03-02T10:42:07;2.58;;;2.38;;
63320;SDS011;49449;48.800;9.534;2024-03-02T10:44:35;3.83;;;2.67;;
63320;SDS011;49449;48.800;9.534;2024-03-02T10:47:04;3.03;;;2.83;;
63320;SDS011;49449;48.800;9.534;2024-03-02T10:49:34;3.08;;;2.28;;
63320;SDS011;49449;48.800;9.534;2024-03-02T10:52:01;2.05;;;1.85;;
63320;SDS011;49449;48.800;9.534;2024-03-02T10:54:30;3.00;;;2.78;;
63320;SDS011;49449;48.800;9.534;2024-03-02T10:57:03;2.03;;;1.80;;
63320;SDS011;49449;48.800;9.534;2024-03-02T10:59:32;2.15;;;1.85;;
63320;SDS011;49449;48.800;9.534;2024-03-02T11:02:02;2.63;;;2.10;;
63320;SDS011;49449;48.800;9.534;2024-03-02T11:04:30;2.70;;;2.50;;
63320;SDS011;49449;48.800;9.534;2024-03-02T11:07:02;2.28;;;2.00;;
63320;SDS011;49449;48.800;9.534;2024-03-02T11:09:33;2.17;;;1.98;;
63320;SDS011;49449;48.800;9.534;2024-03-02T11:12:02;2.22;;;1.77;;
63320;SDS011;49449;48.800;9.534;2024-03-02T11:14:33;2.40;;;2.30;;
63320;SDS011;49449;48.800;9.534;2024-03-02T11:17:05;2.08;;;1.80;;
63320;SDS011;49449;48.800;9.534;2024-03-02T11:19:33;2.55;;;2.30;;
63320;SDS011;49449;48.800;9.534;2024-03-02T11:22:04;2.35;;;2.20;;
63320;SDS011;49449;48.800;9.534;2024-03-02T11:24:32;2.33;;;2.13;;
63320;SDS011;49449;48.800;9.534;2024-03-02T11:27:02;2.13;;;1.92;;
63320;SDS011;49449;48.800;9.534;2024-03-02T11:29:43;3.13;;;2.80;;
63320;SDS011;49449;48.800;9.534;2024-03-02T11:32:15;2.35;;;2.15;;
63320;SDS011;49449;48.800;9.534;2024-03-02T11:34:48;2.55;;;2.35;;
63320;SDS011;49449;48.800;9.534;2024-03-02T11:37:19;2.60;;;2.40;;
63320;SDS011;49449;48.800;9.534;2024-03-02T11:39:48;2.65;;;2.45;;
63320;SDS011;49449;48.800;9.534;2024-03-02T11:42:18;1.90;;;1.77;;
63320;SDS011;49449;48.800;9.534;2024-03-02T11:44:46;2.50;;;2.30;;
63320;SDS011;49449;48.800;9.534;2024-03-02T11:47:16;2.22;;;2.13;;
63320;SDS011;49449;48.800;9.534;2024-03-02T11:49:44;2.15;;;2.05;;
63320;SDS011;49449;48.800;9.534;2024-03-02T11:52:13;2.20;;;2.00;;
63320;SDS011;49449;48.800;9.534;2024-03-02T11:54:45;3.28;;;2.13;;
63320;SDS011;49449;48.800;9.534;2024-03-02T11:59:42;2.85;;;2.33;;
63320;SDS011;49449;48.800;9.534;2024-03-02T12:02:14;2.45;;;2.25;;
63320;SDS011;49449;48.800;9.534;2024-03-02T12:04:43;2.72;;;2.53;;
63320;SDS011;49449;48.800;9.534;2024-03-02T12:07:11;3.20;;;2.50;;
63320;SDS011;49449;48.800;9.534;2024-03-02T12:09:39;3.00;;;2.70;;
63320;SDS011;49449;48.800;9.534;2024-03-02T12:12:09;2.50;;;2.30;;
63320;SDS011;49449;48.800;9.534;2024-03-02T12:14:38;2.60;;;2.33;;
63320;SDS011;49449;48.800;9.534;2024-03-02T12:17:06;1.80;;;1.70;;
63320;SDS011;49449;48.800;9.534;2024-03-02T12:19:34;3.20;;;2.95;;
63320;SDS011;49449;48.800;9.534;2024-03-02T12:22:01;2.78;;;2.58;;
63320;SDS011;49449;48.800;9.534;2024-03-02T12:24:29;2.42;;;2.17;;
63320;SDS011;49449;48.800;9.534;2024-03-02T12:26:57;3.08;;;2.80;;
63320;SDS011;49449;48.800;9.534;2024-03-02T12:29:27;2.40;;;2.20;;
63320;SDS011;49449;48.800;9.534;2024-03-02T12:34:24;1.85;;;1.70;;
63320;SDS011;49449;48.800;9.534;2024-03-02T12:36:53;2.28;;;2.00;;
63320;SDS011;49449;48.800;9.534;2024-03-02T12:39:21;2.20;;;2.10;;
63320;SDS011;49449;48.800;9.534;2024-03-02T12:41:49;2.80;;;2.58;;
63320;SDS011;49449;48.800;9.534;2024-03-02T12:44:17;2.35;;;2.15;;
63320;SDS011;49449;48.800;9.534;2024-03-02T12:46:46;2.47;;;2.28;;
63320;SDS011;49449;48.800;9.534;2024-03-02T12:49:15;2.65;;;2.17;;
63320;SDS011;49449;48.800;9.534;2024-03-02T12:51:43;2.33;;;2.13;;
63320;SDS011;49449;48.800;9.534;2024-03-02T12:54:13;2.67;;;2.40;;
63320;SDS011;49449;48.800;9.534;2024-03-02T12:56:41;1.70;;;1.60;;
63320;SDS011;49449;48.800;9.534;2024-03-02T12:59:17;1.70;;;1.60;;
63320;SDS011;49449;48.800;9.534;2024-03-02T13:01:51;2.13;;;2.00;;
63320;SDS011;49449;48.800;9.534;2024-03-02T13:04:21;1.30;;;1.20;;
63320;SDS011;49449;48.800;9.534;2024-03-02T13:06:50;1.85;;;1.75;;
63320;SDS011;49449;48.800;9.534;2024-03-02T13:09:19;1.85;;;1.73;;
63320;SDS011;49449;48.800;9.534;2024-03-02T13:11:49;1.85;;;1.75;;
63320;SDS011;49449;48.800;9.534;2024-03-02T13:14:16;1.17;;;1.17;;
63320;SDS011;49449;48.800;9.534;2024-03-02T13:16:45;1.70;;;1.60;;
63320;SDS011;49449;48.800;9.534;2024-03-02T13:19:15;1.50;;;1.40;;
63320;SDS011;49449;48.800;9.534;2024-03-02T13:24:16;1.35;;;1.35;;
63320;SDS011;49449;48.800;9.534;2024-03-02T13:26:43;1.23;;;1.23;;
63320;SDS011;49449;48.800;9.534;2024-03-02T13:29:12;0.80;;;0.80;;
63320;SDS011;49449;48.800;9.534;2024-03-02T13:31:40;1.70;;;1.58;;
63320;SDS011;49449;48.800;9.534;2024-03-02T13:34:08;1.27;;;1.27;;
63320;SDS011;49449;48.800;9.534;2024-03-02T13:36:37;1.77;;;1.63;;
63320;SDS011;49449;48.800;9.534;2024-03-02T13:39:05;1.52;;;1.42;;
63320;SDS011;49449;48.800;9.534;2024-03-02T13:41:35;2.58;;;1.33;;
63320;SDS011;49449;48.800;9.534;2024-03-02T13:44:03;1.80;;;1.70;;
63320;SDS011;49449;48.800;9.534;2024-03-02T13:46:31;1.48;;;1.48;;
63320;SDS011;49449;48.800;9.534;2024-03-02T13:48:59;1.23;;;1.13;;
63320;SDS011;49449;48.800;9.534;2024-03-02T13:51:27;1.88;;;1.77;;
63320;SDS011;49449;48.800;9.534;2024-03-02T13:53:56;1.17;;;1.13;;
63320;SDS011;49449;48.800;9.534;2024-03-02T13:56:24;1.90;;;1.80;;
63320;SDS011;49449;48.800;9.534;2024-03-02T13:58:52;1.83;;;1.73;;
63320;SDS011;49449;48.800;9.534;2024-03-02T14:01:20;2.33;;;2.13;;
63320;SDS011;49449;48.800;9.534;2024-03-02T14:03:48;2.08;;;1.63;;
63320;SDS011;49449;48.800;9.534;2024-03-02T14:06:16;2.42;;;2.22;;
63320;SDS011;49449;48.800;9.534;2024-03-02T14:08:44;2.97;;;1.85;;
63320;SDS011;49449;48.800;9.534;2024-03-02T14:13:46;2.50;;;2.30;;
63320;SDS011;49449;48.800;9.534;2024-03-02T14:16:16;2.25;;;2.00;;
63320;SDS011;49449;48.800;9.534;2024-03-02T14:18:45;2.63;;;2.28;;
63320;SDS011;49449;48.800;9.534;2024-03-02T14:21:12;2.30;;;1.80;;
63320;SDS011;49449;48.800;9.534;2024-03-02T14:23:40;1.50;;;1.40;;
63320;SDS011;49449;48.800;9.534;2024-03-02T14:26:08;1.95;;;1.85;;
63320;SDS011;49449;48.800;9.534;2024-03-02T14:28:37;2.05;;;1.95;;
63320;SDS011;49449;48.800;9.534;2024-03-02T14:31:08;1.70;;;1.60;;
63320;SDS011;49449;48.800;9.534;2024-03-02T14:33:38;2.10;;;1.92;;
63320;SDS011;49449;48.800;9.534;2024-03-02T14:36:06;2.45;;;1.58;;
63320;SDS011;49449;48.800;9.534;2024-03-02T14:38:34;2.60;;;1.92;;
63320;SDS011;49449;48.800;9.534;2024-03-02T14:41:02;1.63;;;1.50;;
63320;SDS011;49449;48.800;9.534;2024-03-02T14:43:30;1.77;;;1.70;;
63320;SDS011;49449;48.800;9.534;2024-03-02T14:45:59;2.25;;;1.88;;
63320;SDS011;49449;48.800;9.534;2024-03-02T14:48:27;2.42;;;2.10;;
63320;SDS011;49449;48.800;9.534;2024-03-02T14:50:55;1.98;;;1.77;;
63320;SDS011;49449;48.800;9.534;2024-03-02T14:53:23;2.00;;;1.90;;
63320;SDS011;49449;48.800;9.534;2024-03-02T14:55:51;2.25;;;2.10;;
63320;SDS011;49449;48.800;9.534;2024-03-02T14:58:19;3.13;;;2.83;;